createdAt,value
2024-02-06T00:13:32.872Z,8.9
2024-02-06T00:28:52.700Z,8.9
2024-02-06T00:44:13.508Z,8.8
2024-02-06T00:59:34.318Z,8.9
2024-02-06T01:14:55.126Z,8.9
2024-02-06T01:30:15.935Z,8.6
2024-02-06T01:45:36.744Z,8.7
2024-02-06T02:00:57.553Z,8.8
2024-02-06T02:16:18.363Z,8.6
2024-02-06T02:31:39.144Z,8.7
2024-02-06T02:46:59.980Z,8.7
2024-02-06T03:02:20.789Z,8.7
2024-02-06T03:17:41.598Z,8.8
2024-02-06T03:33:02.407Z,8.7
2024-02-06T03:48:22.232Z,8.9
2024-02-06T04:03:43.042Z,9
2024-02-06T04:19:03.852Z,8.9
2024-02-06T04:34:24.661Z,8.9
2024-02-06T04:49:45.470Z,8.9
2024-02-06T05:05:06.279Z,8.9
2024-02-06T05:20:27.087Z,9
2024-02-06T05:35:47.900Z,8.9
2024-02-06T05:51:08.709Z,9
2024-02-06T06:06:29.517Z,9
2024-02-06T06:21:50.326Z,9.1
2024-02-06T06:37:11.092Z,9.2
2024-02-06T06:52:31.857Z,9.3
2024-02-06T07:07:51.639Z,9.3
2024-02-06T07:23:12.405Z,9.4
2024-02-06T07:38:33.176Z,9.4
2024-02-06T07:53:53.942Z,9.7
2024-02-06T08:09:14.714Z,9.5
2024-02-06T08:24:35.484Z,9.9
2024-02-06T08:39:56.249Z,9.9
2024-02-06T08:55:17.014Z,10.1
2024-02-06T09:10:37.779Z,10.3
2024-02-06T09:25:58.544Z,10.3
2024-02-06T09:41:19.309Z,10.4
2024-02-06T09:56:40.076Z,10.6
2024-02-06T10:12:00.842Z,10.7
2024-02-06T10:27:20.621Z,10.9
2024-02-06T10:42:41.385Z,11.3
2024-02-06T10:58:02.149Z,11.3
2024-02-06T11:13:22.915Z,11.3
2024-02-06T11:28:43.680Z,11.1
2024-02-06T11:44:04.452Z,11.3
2024-02-06T11:59:25.218Z,11.3
2024-02-06T12:14:45.981Z,11.1
2024-02-06T12:30:06.745Z,11
2024-02-06T12:45:27.513Z,11.2
2024-02-06T13:00:48.277Z,11.5
2024-02-06T13:16:09.045Z,11.3
2024-02-06T13:31:29.812Z,11.2
2024-02-06T13:32:49.741Z,11.3
2024-02-06T13:34:10.657Z,11.3
2024-02-06T13:35:31.572Z,11.3
2024-02-06T13:36:52.492Z,11.2
2024-02-06T13:38:13.407Z,11.2
2024-02-06T13:39:34.321Z,11.2
2024-02-06T13:40:55.243Z,11.3
2024-02-06T13:42:16.167Z,11.3
2024-02-06T13:43:37.083Z,11.3
2024-02-06T13:44:57.998Z,11.2
2024-02-06T13:46:18.917Z,11.2
2024-02-06T13:47:39.838Z,11.2
2024-02-06T13:49:00.753Z,11.3
2024-02-06T13:50:20.685Z,11.2
2024-02-06T13:51:41.603Z,11.3
2024-02-06T13:53:02.518Z,11.3
2024-02-06T13:54:23.439Z,11.3
2024-02-06T13:55:44.354Z,11.3
2024-02-06T13:57:05.267Z,11.3
2024-02-06T13:58:26.183Z,11.4
2024-02-06T13:59:47.071Z,11.3
2024-02-06T14:01:08.009Z,11.2
2024-02-06T14:02:28.923Z,11.3
2024-02-06T14:03:49.838Z,11.3
2024-02-06T14:05:10.749Z,11.4
2024-02-06T14:06:31.662Z,11.4
2024-02-06T14:07:51.593Z,11.3
2024-02-06T14:09:12.506Z,11.3
2024-02-06T14:10:33.422Z,11.4
2024-02-06T14:11:54.337Z,11.2
2024-02-06T14:13:15.249Z,11.3
2024-02-06T14:14:36.164Z,11.3
2024-02-06T14:15:57.082Z,11.2
2024-02-06T14:17:17.998Z,11.2
2024-02-06T14:18:38.881Z,11.2
2024-02-06T14:19:59.826Z,11.3
2024-02-06T14:21:20.741Z,11.4
2024-02-06T14:22:41.654Z,11.3
2024-02-06T14:24:02.569Z,11.3
2024-02-06T14:25:22.501Z,11.3
2024-02-06T14:26:43.397Z,11.3
2024-02-06T14:28:04.332Z,11.4
2024-02-06T14:29:25.245Z,11.3
2024-02-06T14:30:46.160Z,11.3
2024-02-06T14:32:07.073Z,11.4
2024-02-06T14:33:27.988Z,11.3
2024-02-06T14:34:48.901Z,11.4
2024-02-06T14:36:09.814Z,11.4
2024-02-06T14:37:30.729Z,11.4
2024-02-06T14:38:51.645Z,11.4
2024-02-06T14:40:12.558Z,11.5
2024-02-06T14:41:33.469Z,11.4
2024-02-06T14:42:53.400Z,11.4
2024-02-06T14:44:14.316Z,11.4
2024-02-06T14:45:35.231Z,11.4
2024-02-06T14:46:56.147Z,11.4
2024-02-06T14:48:17.058Z,11.4
2024-02-06T14:49:37.973Z,11.4
2024-02-06T14:50:58.868Z,11.4
2024-02-06T14:52:19.804Z,11.4
2024-02-06T14:53:40.719Z,11.4
2024-02-06T14:55:01.635Z,11.2
2024-02-06T14:56:22.550Z,11.3
2024-02-06T14:57:43.465Z,11.2
2024-02-06T14:59:04.380Z,11.3
2024-02-06T15:00:24.313Z,11.4
2024-02-06T15:01:45.229Z,11.3
2024-02-06T15:03:06.141Z,11.3
2024-02-06T15:04:27.056Z,11.2
2024-02-06T15:05:47.970Z,11.1
2024-02-06T15:07:08.885Z,11.2
2024-02-06T15:08:29.798Z,11.3
2024-02-06T15:09:50.713Z,11.1
2024-02-06T15:11:11.628Z,11.2
2024-02-06T15:12:32.544Z,11.2
2024-02-06T15:13:53.457Z,11.3
2024-02-06T15:15:14.348Z,11.4
2024-02-06T15:16:35.288Z,11.2
2024-02-06T15:17:55.222Z,11.4
2024-02-06T15:19:16.135Z,11.3
2024-02-06T15:20:37.051Z,11.4
2024-02-06T15:21:57.966Z,11.3
2024-02-06T15:23:18.877Z,11.1
2024-02-06T15:24:39.791Z,11.2
2024-02-06T15:26:00.704Z,11.3
2024-02-06T15:27:21.617Z,11.3
2024-02-06T15:28:42.530Z,11.3
2024-02-06T15:30:03.443Z,11.3
2024-02-06T15:31:24.356Z,11.2
2024-02-06T15:32:45.269Z,11.2
2024-02-06T15:34:06.182Z,11.2
2024-02-06T15:35:26.111Z,11.2
2024-02-06T15:36:47.024Z,11.2
2024-02-06T15:38:07.939Z,11.2
2024-02-06T15:39:28.854Z,11.2
2024-02-06T15:40:49.771Z,11.2
2024-02-06T15:42:10.684Z,11.2
2024-02-06T15:43:31.599Z,11.2
2024-02-06T15:44:52.517Z,11.1
2024-02-06T15:46:13.430Z,11.3
2024-02-06T15:47:34.344Z,11.2
2024-02-06T15:48:55.255Z,11.1
2024-02-06T15:50:16.168Z,11.2
2024-02-06T15:51:37.083Z,11.1
2024-02-06T15:52:57.012Z,11.1
2024-02-06T15:54:17.927Z,11.1
2024-02-06T15:55:38.840Z,11.2
2024-02-06T15:56:59.751Z,11.2
2024-02-06T15:58:20.664Z,11.1
2024-02-06T15:59:41.576Z,11.1
2024-02-06T16:01:02.487Z,11
2024-02-06T16:02:23.400Z,11
2024-02-06T16:03:44.313Z,11.1
2024-02-06T16:05:05.228Z,11.1
2024-02-06T16:06:26.139Z,11
2024-02-06T16:07:47.054Z,11.1
2024-02-06T16:09:07.967Z,11.2
2024-02-06T16:10:27.896Z,11.1
2024-02-06T16:11:48.810Z,11
2024-02-06T16:13:09.725Z,11.2
2024-02-06T16:14:30.638Z,11
2024-02-06T16:15:51.551Z,11
2024-02-06T16:17:12.433Z,11.2
2024-02-06T16:18:32.400Z,10.9
2024-02-06T16:19:53.313Z,11.1
2024-02-06T16:21:14.226Z,11.1
2024-02-06T16:22:35.139Z,11.1
2024-02-06T16:23:56.053Z,11.1
2024-02-06T16:25:17.007Z,10.9
2024-02-06T16:26:37.906Z,11.1
2024-02-06T16:27:58.833Z,11
2024-02-06T16:29:19.792Z,11
2024-02-06T16:30:40.704Z,11.1
2024-02-06T16:32:01.617Z,11.1
2024-02-06T16:33:22.530Z,10.9
2024-02-06T16:34:43.489Z,11
2024-02-06T16:36:03.461Z,11
2024-02-06T16:37:24.417Z,11
2024-02-06T16:38:45.373Z,11
2024-02-06T16:40:06.333Z,11
2024-02-06T16:41:27.287Z,11.1
2024-02-06T16:42:48.228Z,10.9
2024-02-06T16:44:09.199Z,10.9
2024-02-06T16:45:30.155Z,10.9
2024-02-06T16:46:51.111Z,10.9
2024-02-06T16:48:12.067Z,10.9
2024-02-06T16:49:33.023Z,10.9
2024-02-06T16:50:53.965Z,10.9
2024-02-06T16:52:14.938Z,10.9
2024-02-06T16:53:34.908Z,10.9
2024-02-06T16:54:55.864Z,10.8
2024-02-06T16:56:16.819Z,10.7
2024-02-06T16:57:37.775Z,11
2024-02-06T16:58:58.731Z,10.9
2024-02-06T17:00:19.687Z,10.8
2024-02-06T17:01:40.643Z,10.8
2024-02-06T17:03:01.599Z,10.9
2024-02-06T17:04:22.553Z,10.8
2024-02-06T17:05:43.509Z,10.8
2024-02-06T17:07:04.465Z,10.8
2024-02-06T17:08:25.420Z,10.9
2024-02-06T17:09:46.377Z,10.7
2024-02-06T17:11:06.352Z,10.8
2024-02-06T17:12:27.308Z,10.7
2024-02-06T17:13:48.264Z,10.9
2024-02-06T17:15:09.198Z,10.8
2024-02-06T17:16:30.176Z,10.8
2024-02-06T17:17:51.130Z,10.8
2024-02-06T17:19:12.086Z,10.7
2024-02-06T17:20:33.042Z,10.7
2024-02-06T17:21:53.998Z,10.7
2024-02-06T17:23:14.956Z,10.7
2024-02-06T17:24:35.912Z,10.7
2024-02-06T17:25:56.868Z,10.7
2024-02-06T17:27:17.824Z,10.5
2024-02-06T17:28:37.797Z,10.7
2024-02-06T17:43:58.604Z,10.5
2024-02-06T17:59:19.412Z,10.5
2024-02-06T18:14:40.221Z,10.5
2024-02-06T18:30:01.031Z,10.6
2024-02-06T18:45:21.840Z,10.5
2024-02-06T19:00:42.652Z,10.4
2024-02-06T19:16:03.459Z,10.3
2024-02-06T19:31:24.267Z,10.2
2024-02-06T19:46:45.076Z,10.2
2024-02-06T20:02:05.884Z,10.2
2024-02-06T20:17:26.692Z,10.3
2024-02-06T20:32:47.500Z,10.2
2024-02-06T20:48:07.325Z,10.4
2024-02-06T21:03:28.133Z,10.3
2024-02-06T21:18:48.940Z,10.3
2024-02-06T21:34:09.747Z,10.4
2024-02-06T21:49:30.555Z,10.3
2024-02-06T22:04:51.362Z,10.5
2024-02-06T22:20:12.169Z,10.2
2024-02-06T22:35:32.977Z,10.4
2024-02-06T22:50:53.784Z,10.2
2024-02-06T23:06:14.590Z,10.4
2024-02-06T23:21:35.398Z,10.2
2024-02-06T23:36:56.206Z,10.4
2024-02-06T23:52:17.014Z,10.5
